LPLA METAR and TAF weather

Enter ICAO airport designator
Station Type Date Time Source
LPLA METAR 2021/07/26 16:00 UTC NOAA

LPLA 261600Z /////KT 9999 SCT020 23/21 Q1028


Station Type Date Time Source
LPLA Decoded METAR 2021/07/26 16:00 UTC NOAA

Lajes Acores , Portugal (LPLA) 38-46N 027-06W 54M
Jul 26, 2021 - 12:00 PM EDT / 2021.07.26 1600 UTC
Visibility: greater than 7 mile(s):0
Sky conditions: partly cloudy
Temperature: 73 F (23 C)
Dew Point: 69 F (21 C)
Relative Humidity: 88%
Pressure (altimeter): 30.36 in. Hg (1028 hPa)
ob: LPLA 261600Z /////KT 9999 SCT020 23/21 Q1028
cycle: 16

Station Type Date Time Source
LPLA TAF 2021/07/26 14:52 UTC NOAA

TAF
AMD LPLA 261343Z 2614/2712 36010KT 9999 FEW018 BKN025
TEMPO 2614/2708 7000 -RADZ SCT007 BKN014
TEMPO 2708/2712 4000 -DZRA BR SCT004 BKN007

Example: see airport list